sensor_id;sensor_type;location;lat;lon;timestamp;P1;durP1;ratioP1;P2;durP2;ratioP2
24826;SDS011;12910;57.690;11.974;2022-11-23T00:01:27;12.93;;;11.57;;
24826;SDS011;12910;57.690;11.974;2022-11-23T00:03:55;19.63;;;12.63;;
24826;SDS011;12910;57.690;11.974;2022-11-23T00:06:23;24.60;;;14.47;;
24826;SDS011;12910;57.690;11.974;2022-11-23T00:08:49;13.57;;;12.10;;
24826;SDS011;12910;57.690;11.974;2022-11-23T00:11:15;17.77;;;12.33;;
24826;SDS011;12910;57.690;11.974;2022-11-23T00:13:41;26.33;;;13.20;;
24826;SDS011;12910;57.690;11.974;2022-11-23T00:16:07;17.57;;;13.43;;
24826;SDS011;12910;57.690;11.974;2022-11-23T00:18:34;19.93;;;13.83;;
24826;SDS011;12910;57.690;11.974;2022-11-23T00:21:03;12.90;;;11.80;;
24826;SDS011;12910;57.690;11.974;2022-11-23T00:23:30;19.57;;;12.60;;
24826;SDS011;12910;57.690;11.974;2022-11-23T00:25:55;13.53;;;11.93;;
24826;SDS011;12910;57.690;11.974;2022-11-23T00:28:21;16.63;;;13.33;;
24826;SDS011;12910;57.690;11.974;2022-11-23T00:30:49;15.60;;;13.20;;
24826;SDS011;12910;57.690;11.974;2022-11-23T00:33:15;15.47;;;12.90;;
24826;SDS011;12910;57.690;11.974;2022-11-23T00:35:41;29.20;;;13.40;;
24826;SDS011;12910;57.690;11.974;2022-11-23T00:38:07;15.43;;;13.00;;
24826;SDS011;12910;57.690;11.974;2022-11-23T00:40:32;15.23;;;12.70;;
24826;SDS011;12910;57.690;11.974;2022-11-23T00:42:57;16.00;;;12.83;;
24826;SDS011;12910;57.690;11.974;2022-11-23T00:45:23;19.43;;;12.97;;
24826;SDS011;12910;57.690;11.974;2022-11-23T00:47:48;19.20;;;12.23;;
24826;SDS011;12910;57.690;11.974;2022-11-23T00:50:13;18.00;;;12.17;;
24826;SDS011;12910;57.690;11.974;2022-11-23T00:52:39;18.03;;;12.50;;
24826;SDS011;12910;57.690;11.974;2022-11-23T00:55:05;15.00;;;13.40;;
24826;SDS011;12910;57.690;11.974;2022-11-23T00:57:31;17.73;;;13.77;;
24826;SDS011;12910;57.690;11.974;2022-11-23T00:59:58;19.23;;;13.03;;
24826;SDS011;12910;57.690;11.974;2022-11-23T01:02:23;25.93;;;13.53;;
24826;SDS011;12910;57.690;11.974;2022-11-23T01:04:48;19.97;;;13.60;;
24826;SDS011;12910;57.690;11.974;2022-11-23T01:07:14;17.63;;;12.10;;
24826;SDS011;12910;57.690;11.974;2022-11-23T01:09:39;15.00;;;12.50;;
24826;SDS011;12910;57.690;11.974;2022-11-23T01:12:04;13.50;;;12.10;;
24826;SDS011;12910;57.690;11.974;2022-11-23T01:14:30;19.50;;;12.80;;
24826;SDS011;12910;57.690;11.974;2022-11-23T01:16:55;19.43;;;14.47;;
24826;SDS011;12910;57.690;11.974;2022-11-23T01:19:21;20.23;;;12.90;;
24826;SDS011;12910;57.690;11.974;2022-11-23T01:21:46;12.70;;;11.40;;
24826;SDS011;12910;57.690;11.974;2022-11-23T01:24:21;17.03;;;12.20;;
24826;SDS011;12910;57.690;11.974;2022-11-23T01:26:53;17.77;;;11.73;;
24826;SDS011;12910;57.690;11.974;2022-11-23T01:29:20;15.63;;;12.10;;
24826;SDS011;12910;57.690;11.974;2022-11-23T01:31:46;19.33;;;12.37;;
24826;SDS011;12910;57.690;11.974;2022-11-23T01:34:12;12.10;;;11.07;;
24826;SDS011;12910;57.690;11.974;2022-11-23T01:36:39;12.90;;;11.80;;
24826;SDS011;12910;57.690;11.974;2022-11-23T01:39:04;13.03;;;11.50;;
24826;SDS011;12910;57.690;11.974;2022-11-23T01:41:32;13.27;;;11.57;;
24826;SDS011;12910;57.690;11.974;2022-11-23T01:43:59;12.63;;;11.40;;
24826;SDS011;12910;57.690;11.974;2022-11-23T01:46:25;14.33;;;11.37;;
24826;SDS011;12910;57.690;11.974;2022-11-23T01:49:00;14.40;;;12.93;;
24826;SDS011;12910;57.690;11.974;2022-11-23T01:51:34;12.30;;;11.13;;
24826;SDS011;12910;57.690;11.974;2022-11-23T01:54:07;17.00;;;12.43;;
24826;SDS011;12910;57.690;11.974;2022-11-23T01:56:37;11.63;;;10.73;;
24826;SDS011;12910;57.690;11.974;2022-11-23T01:59:07;15.60;;;12.07;;
24826;SDS011;12910;57.690;11.974;2022-11-23T02:01:37;12.50;;;10.67;;
24826;SDS011;12910;57.690;11.974;2022-11-23T02:04:03;11.30;;;10.40;;
24826;SDS011;12910;57.690;11.974;2022-11-23T02:06:31;12.10;;;10.90;;
24826;SDS011;12910;57.690;11.974;2022-11-23T02:08:57;12.77;;;11.23;;
24826;SDS011;12910;57.690;11.974;2022-11-23T02:11:24;12.07;;;10.97;;
24826;SDS011;12910;57.690;11.974;2022-11-23T02:13:49;11.30;;;10.20;;
24826;SDS011;12910;57.690;11.974;2022-11-23T02:16:16;11.23;;;10.40;;
24826;SDS011;12910;57.690;11.974;2022-11-23T02:18:42;11.10;;;10.00;;
24826;SDS011;12910;57.690;11.974;2022-11-23T02:21:10;10.37;;;9.53;;
24826;SDS011;12910;57.690;11.974;2022-11-23T02:26:26;10.60;;;9.30;;
24826;SDS011;12910;57.690;11.974;2022-11-23T02:29:02;9.73;;;8.93;;
24826;SDS011;12910;57.690;11.974;2022-11-23T02:31:36;10.87;;;9.87;;
24826;SDS011;12910;57.690;11.974;2022-11-23T02:34:02;11.63;;;9.30;;
24826;SDS011;12910;57.690;11.974;2022-11-23T02:39:06;12.97;;;8.90;;
24826;SDS011;12910;57.690;11.974;2022-11-23T02:41:39;9.80;;;8.87;;
24826;SDS011;12910;57.690;11.974;2022-11-23T02:44:30;10.80;;;9.73;;
24826;SDS011;12910;57.690;11.974;2022-11-23T02:47:12;10.93;;;8.80;;
24826;SDS011;12910;57.690;11.974;2022-11-23T02:49:41;10.37;;;9.40;;
24826;SDS011;12910;57.690;11.974;2022-11-23T02:52:10;9.07;;;8.27;;
24826;SDS011;12910;57.690;11.974;2022-11-23T02:54:35;9.80;;;8.57;;
24826;SDS011;12910;57.690;11.974;2022-11-23T02:57:01;11.60;;;9.40;;
24826;SDS011;12910;57.690;11.974;2022-11-23T02:59:26;9.67;;;8.73;;
24826;SDS011;12910;57.690;11.974;2022-11-23T03:01:52;9.57;;;8.77;;
24826;SDS011;12910;57.690;11.974;2022-11-23T03:04:17;9.57;;;8.63;;
24826;SDS011;12910;57.690;11.974;2022-11-23T03:06:43;9.67;;;8.50;;
24826;SDS011;12910;57.690;11.974;2022-11-23T03:09:08;8.90;;;8.00;;
24826;SDS011;12910;57.690;11.974;2022-11-23T03:11:34;9.20;;;8.00;;
24826;SDS011;12910;57.690;11.974;2022-11-23T03:14:00;10.20;;;9.27;;
24826;SDS011;12910;57.690;11.974;2022-11-23T03:16:25;8.70;;;8.10;;
24826;SDS011;12910;57.690;11.974;2022-11-23T03:18:51;8.60;;;7.50;;
24826;SDS011;12910;57.690;11.974;2022-11-23T03:21:16;9.30;;;8.50;;
24826;SDS011;12910;57.690;11.974;2022-11-23T03:23:42;9.40;;;8.43;;
24826;SDS011;12910;57.690;11.974;2022-11-23T03:26:07;9.07;;;7.97;;
24826;SDS011;12910;57.690;11.974;2022-11-23T03:28:33;8.67;;;7.87;;
24826;SDS011;12910;57.690;11.974;2022-11-23T03:30:58;8.40;;;7.70;;
24826;SDS011;12910;57.690;11.974;2022-11-23T03:33:24;9.13;;;8.17;;
24826;SDS011;12910;57.690;11.974;2022-11-23T03:35:49;8.87;;;7.97;;
24826;SDS011;12910;57.690;11.974;2022-11-23T03:38:14;10.20;;;7.47;;
24826;SDS011;12910;57.690;11.974;2022-11-23T03:40:40;12.97;;;8.07;;
24826;SDS011;12910;57.690;11.974;2022-11-23T03:43:09;8.67;;;7.83;;
24826;SDS011;12910;57.690;11.974;2022-11-23T03:45:35;8.17;;;7.30;;
24826;SDS011;12910;57.690;11.974;2022-11-23T03:48:00;8.93;;;8.10;;
24826;SDS011;12910;57.690;11.974;2022-11-23T03:50:25;8.63;;;7.83;;
24826;SDS011;12910;57.690;11.974;2022-11-23T03:52:53;8.03;;;7.43;;
24826;SDS011;12910;57.690;11.974;2022-11-23T03:55:19;8.23;;;7.07;;
24826;SDS011;12910;57.690;11.974;2022-11-23T03:57:46;8.47;;;7.77;;
24826;SDS011;12910;57.690;11.974;2022-11-23T04:00:12;9.37;;;8.57;;
24826;SDS011;12910;57.690;11.974;2022-11-23T04:02:39;8.90;;;7.87;;
24826;SDS011;12910;57.690;11.974;2022-11-23T04:05:05;9.13;;;8.33;;
24826;SDS011;12910;57.690;11.974;2022-11-23T04:07:31;8.73;;;8.03;;
24826;SDS011;12910;57.690;11.974;2022-11-23T04:09:56;7.83;;;7.23;;
24826;SDS011;12910;57.690;11.974;2022-11-23T04:12:22;9.93;;;8.90;;
24826;SDS011;12910;57.690;11.974;2022-11-23T04:14:48;9.90;;;8.63;;
24826;SDS011;12910;57.690;11.974;2022-11-23T04:17:13;10.47;;;9.47;;
24826;SDS011;12910;57.690;11.974;2022-11-23T04:19:39;13.20;;;9.10;;
24826;SDS011;12910;57.690;11.974;2022-11-23T04:22:04;9.33;;;8.43;;
24826;SDS011;12910;57.690;11.974;2022-11-23T04:24:30;14.20;;;8.93;;
24826;SDS011;12910;57.690;11.974;2022-11-23T04:26:55;9.33;;;8.43;;
24826;SDS011;12910;57.690;11.974;2022-11-23T04:29:20;9.57;;;8.70;;
24826;SDS011;12910;57.690;11.974;2022-11-23T04:31:46;16.77;;;8.23;;
24826;SDS011;12910;57.690;11.974;2022-11-23T04:34:11;13.20;;;8.80;;
24826;SDS011;12910;57.690;11.974;2022-11-23T04:36:36;8.70;;;7.70;;
24826;SDS011;12910;57.690;11.974;2022-11-23T04:39:02;10.13;;;9.23;;
24826;SDS011;12910;57.690;11.974;2022-11-23T04:41:28;10.27;;;8.97;;
24826;SDS011;12910;57.690;11.974;2022-11-23T04:43:54;12.37;;;8.27;;
24826;SDS011;12910;57.690;11.974;2022-11-23T04:46:20;8.60;;;7.80;;
24826;SDS011;12910;57.690;11.974;2022-11-23T04:48:45;9.67;;;8.80;;
24826;SDS011;12910;57.690;11.974;2022-11-23T04:51:10;9.40;;;8.60;;
24826;SDS011;12910;57.690;11.974;2022-11-23T04:53:36;9.83;;;7.63;;
24826;SDS011;12910;57.690;11.974;2022-11-23T04:56:01;10.67;;;8.20;;
24826;SDS011;12910;57.690;11.974;2022-11-23T04:58:27;13.47;;;9.83;;
24826;SDS011;12910;57.690;11.974;2022-11-23T05:00:53;10.00;;;8.27;;
24826;SDS011;12910;57.690;11.974;2022-11-23T05:03:18;12.60;;;9.60;;
24826;SDS011;12910;57.690;11.974;2022-11-23T05:05:44;8.77;;;7.80;;
24826;SDS011;12910;57.690;11.974;2022-11-23T05:08:09;8.10;;;7.27;;
24826;SDS011;12910;57.690;11.974;2022-11-23T05:10:35;9.50;;;8.70;;
24826;SDS011;12910;57.690;11.974;2022-11-23T05:13:00;19.97;;;10.80;;
24826;SDS011;12910;57.690;11.974;2022-11-23T05:15:26;9.77;;;8.73;;
24826;SDS011;12910;57.690;11.974;2022-11-23T05:17:52;9.60;;;8.90;;
24826;SDS011;12910;57.690;11.974;2022-11-23T05:20:17;9.27;;;8.50;;
24826;SDS011;12910;57.690;11.974;2022-11-23T05:22:43;10.57;;;8.77;;
24826;SDS011;12910;57.690;11.974;2022-11-23T05:25:08;8.67;;;7.97;;
24826;SDS011;12910;57.690;11.974;2022-11-23T05:27:34;12.10;;;8.40;;
24826;SDS011;12910;57.690;11.974;2022-11-23T05:30:00;10.07;;;7.97;;
24826;SDS011;12910;57.690;11.974;2022-11-23T05:32:25;12.43;;;8.63;;
24826;SDS011;12910;57.690;11.974;2022-11-23T05:34:51;10.20;;;8.20;;
24826;SDS011;12910;57.690;11.974;2022-11-23T05:37:16;8.77;;;8.07;;
24826;SDS011;12910;57.690;11.974;2022-11-23T05:39:41;15.97;;;8.83;;
24826;SDS011;12910;57.690;11.974;2022-11-23T05:42:07;8.83;;;8.03;;
24826;SDS011;12910;57.690;11.974;2022-11-23T05:44:33;14.90;;;7.80;;
24826;SDS011;12910;57.690;11.974;2022-11-23T05:46:58;9.03;;;8.17;;
24826;SDS011;12910;57.690;11.974;2022-11-23T05:49:24;9.17;;;8.27;;
24826;SDS011;12910;57.690;11.974;2022-11-23T05:51:49;8.63;;;7.63;;
24826;SDS011;12910;57.690;11.974;2022-11-23T05:54:15;9.37;;;8.20;;
24826;SDS011;12910;57.690;11.974;2022-11-23T05:56:40;9.90;;;8.20;;
24826;SDS011;12910;57.690;11.974;2022-11-23T05:59:05;10.43;;;9.10;;
24826;SDS011;12910;57.690;11.974;2022-11-23T06:01:32;11.70;;;7.67;;
24826;SDS011;12910;57.690;11.974;2022-11-23T06:03:57;9.13;;;8.33;;
24826;SDS011;12910;57.690;11.974;2022-11-23T06:06:23;11.77;;;8.30;;
24826;SDS011;12910;57.690;11.974;2022-11-23T06:08:48;15.53;;;8.03;;
24826;SDS011;12910;57.690;11.974;2022-11-23T06:11:13;9.43;;;8.07;;
24826;SDS011;12910;57.690;11.974;2022-11-23T06:13:39;8.37;;;7.67;;
24826;SDS011;12910;57.690;11.974;2022-11-23T06:16:05;7.53;;;6.93;;
24826;SDS011;12910;57.690;11.974;2022-11-23T06:18:30;8.77;;;7.97;;
24826;SDS011;12910;57.690;11.974;2022-11-23T06:20:59;7.87;;;7.27;;
24826;SDS011;12910;57.690;11.974;2022-11-23T06:23:25;8.10;;;7.30;;
24826;SDS011;12910;57.690;11.974;2022-11-23T06:25:51;12.00;;;6.20;;
24826;SDS011;12910;57.690;11.974;2022-11-23T06:28:17;7.17;;;6.57;;
24826;SDS011;12910;57.690;11.974;2022-11-23T06:30:42;7.50;;;6.90;;
24826;SDS011;12910;57.690;11.974;2022-11-23T06:33:07;7.43;;;6.87;;
24826;SDS011;12910;57.690;11.974;2022-11-23T06:35:33;7.80;;;7.10;;
24826;SDS011;12910;57.690;11.974;2022-11-23T06:37:59;6.83;;;6.30;;
24826;SDS011;12910;57.690;11.974;2022-11-23T06:40:24;14.43;;;6.60;;
24826;SDS011;12910;57.690;11.974;2022-11-23T06:42:50;6.57;;;6.07;;
24826;SDS011;12910;57.690;11.974;2022-11-23T06:45:17;7.27;;;6.77;;
24826;SDS011;12910;57.690;11.974;2022-11-23T06:47:43;11.23;;;6.80;;
24826;SDS011;12910;57.690;11.974;2022-11-23T06:50:08;6.60;;;6.10;;
24826;SDS011;12910;57.690;11.974;2022-11-23T06:52:34;8.43;;;5.70;;
24826;SDS011;12910;57.690;11.974;2022-11-23T06:54:59;6.00;;;5.50;;
24826;SDS011;12910;57.690;11.974;2022-11-23T06:57:24;5.67;;;5.20;;
24826;SDS011;12910;57.690;11.974;2022-11-23T06:59:50;5.70;;;5.20;;
24826;SDS011;12910;57.690;11.974;2022-11-23T07:02:15;7.67;;;5.17;;
24826;SDS011;12910;57.690;11.974;2022-11-23T07:04:41;5.87;;;5.37;;
24826;SDS011;12910;57.690;11.974;2022-11-23T07:07:06;5.90;;;5.40;;
24826;SDS011;12910;57.690;11.974;2022-11-23T07:09:32;5.63;;;5.17;;
24826;SDS011;12910;57.690;11.974;2022-11-23T07:11:58;5.87;;;5.37;;
24826;SDS011;12910;57.690;11.974;2022-11-23T07:14:23;6.20;;;5.70;;
24826;SDS011;12910;57.690;11.974;2022-11-23T07:16:49;5.60;;;5.20;;
24826;SDS011;12910;57.690;11.974;2022-11-23T07:19:15;8.77;;;5.37;;
24826;SDS011;12910;57.690;11.974;2022-11-23T07:21:40;5.57;;;5.17;;
24826;SDS011;12910;57.690;11.974;2022-11-23T07:24:05;7.87;;;4.80;;
24826;SDS011;12910;57.690;11.974;2022-11-23T07:26:31;4.90;;;4.30;;
24826;SDS011;12910;57.690;11.974;2022-11-23T07:28:56;5.87;;;5.00;;
24826;SDS011;12910;57.690;11.974;2022-11-23T07:31:22;5.60;;;5.20;;
24826;SDS011;12910;57.690;11.974;2022-11-23T07:33:47;4.67;;;4.37;;
24826;SDS011;12910;57.690;11.974;2022-11-23T07:36:13;4.67;;;4.27;;
24826;SDS011;12910;57.690;11.974;2022-11-23T07:38:39;4.80;;;4.40;;
24826;SDS011;12910;57.690;11.974;2022-11-23T07:41:05;6.00;;;5.37;;
24826;SDS011;12910;57.690;11.974;2022-11-23T07:43:30;5.50;;;5.00;;
24826;SDS011;12910;57.690;11.974;2022-11-23T07:45:56;5.40;;;4.97;;
24826;SDS011;12910;57.690;11.974;2022-11-23T07:48:24;5.40;;;5.00;;
24826;SDS011;12910;57.690;11.974;2022-11-23T07:50:53;4.47;;;4.17;;
24826;SDS011;12910;57.690;11.974;2022-11-23T07:53:20;6.50;;;4.07;;
24826;SDS011;12910;57.690;11.974;2022-11-23T07:55:45;4.70;;;4.20;;
24826;SDS011;12910;57.690;11.974;2022-11-23T07:58:11;5.10;;;4.70;;
24826;SDS011;12910;57.690;11.974;2022-11-23T08:00:36;4.60;;;4.20;;
24826;SDS011;12910;57.690;11.974;2022-11-23T08:03:02;5.37;;;4.97;;
24826;SDS011;12910;57.690;11.974;2022-11-23T08:05:30;4.10;;;3.80;;
24826;SDS011;12910;57.690;11.974;2022-11-23T08:07:57;4.27;;;3.97;;
24826;SDS011;12910;57.690;11.974;2022-11-23T08:10:24;6.30;;;4.70;;
24826;SDS011;12910;57.690;11.974;2022-11-23T08:12:55;4.13;;;3.93;;
24826;SDS011;12910;57.690;11.974;2022-11-23T08:15:21;4.67;;;4.27;;
24826;SDS011;12910;57.690;11.974;2022-11-23T08:17:48;3.60;;;3.30;;
24826;SDS011;12910;57.690;11.974;2022-11-23T08:20:13;4.43;;;4.03;;
24826;SDS011;12910;57.690;11.974;2022-11-23T08:22:39;3.73;;;3.33;;
24826;SDS011;12910;57.690;11.974;2022-11-23T08:25:04;4.70;;;4.30;;
24826;SDS011;12910;57.690;11.974;2022-11-23T08:27:30;3.93;;;3.63;;
24826;SDS011;12910;57.690;11.974;2022-11-23T08:29:55;4.00;;;3.70;;
24826;SDS011;12910;57.690;11.974;2022-11-23T08:32:21;3.87;;;3.60;;
24826;SDS011;12910;57.690;11.974;2022-11-23T08:34:46;10.73;;;5.17;;
24826;SDS011;12910;57.690;11.974;2022-11-23T08:37:11;4.23;;;3.97;;
24826;SDS011;12910;57.690;11.974;2022-11-23T08:39:37;4.87;;;4.47;;
24826;SDS011;12910;57.690;11.974;2022-11-23T08:42:02;3.63;;;3.33;;
24826;SDS011;12910;57.690;11.974;2022-11-23T08:44:29;3.73;;;3.43;;
24826;SDS011;12910;57.690;11.974;2022-11-23T08:46:57;3.63;;;3.43;;
24826;SDS011;12910;57.690;11.974;2022-11-23T08:49:23;3.63;;;3.43;;
24826;SDS011;12910;57.690;11.974;2022-11-23T08:51:48;4.97;;;3.67;;
24826;SDS011;12910;57.690;11.974;2022-11-23T08:54:13;5.80;;;4.30;;
24826;SDS011;12910;57.690;11.974;2022-11-23T08:56:39;4.77;;;4.37;;
24826;SDS011;12910;57.690;11.974;2022-11-23T08:59:04;4.03;;;3.73;;
24826;SDS011;12910;57.690;11.974;2022-11-23T09:01:30;5.13;;;4.70;;
24826;SDS011;12910;57.690;11.974;2022-11-23T09:03:56;8.50;;;4.13;;
24826;SDS011;12910;57.690;11.974;2022-11-23T09:06:22;4.10;;;3.73;;
24826;SDS011;12910;57.690;11.974;2022-11-23T09:08:53;4.57;;;4.27;;
24826;SDS011;12910;57.690;11.974;2022-11-23T09:11:19;3.83;;;3.43;;
24826;SDS011;12910;57.690;11.974;2022-11-23T09:13:44;5.43;;;3.97;;
24826;SDS011;12910;57.690;11.974;2022-11-23T09:16:10;3.80;;;3.57;;
24826;SDS011;12910;57.690;11.974;2022-11-23T09:18:35;4.03;;;3.73;;
24826;SDS011;12910;57.690;11.974;2022-11-23T09:21:02;3.17;;;2.97;;
24826;SDS011;12910;57.690;11.974;2022-11-23T09:23:28;3.63;;;3.43;;
24826;SDS011;12910;57.690;11.974;2022-11-23T09:25:56;3.17;;;2.87;;
24826;SDS011;12910;57.690;11.974;2022-11-23T09:28:25;2.87;;;2.67;;
24826;SDS011;12910;57.690;11.974;2022-11-23T09:30:52;3.40;;;3.10;;
24826;SDS011;12910;57.690;11.974;2022-11-23T09:33:19;3.60;;;3.30;;
24826;SDS011;12910;57.690;11.974;2022-11-23T09:35:45;5.93;;;2.77;;
24826;SDS011;12910;57.690;11.974;2022-11-23T09:38:10;2.63;;;2.43;;
24826;SDS011;12910;57.690;11.974;2022-11-23T09:40:37;2.70;;;2.50;;
24826;SDS011;12910;57.690;11.974;2022-11-23T09:46:43;2.60;;;2.10;;
24826;SDS011;12910;57.690;11.974;2022-11-23T09:49:18;2.93;;;2.73;;
24826;SDS011;12910;57.690;11.974;2022-11-23T09:51:45;2.40;;;2.20;;
24826;SDS011;12910;57.690;11.974;2022-11-23T09:54:29;2.30;;;2.10;;
24826;SDS011;12910;57.690;11.974;2022-11-23T09:56:57;2.03;;;1.87;;
24826;SDS011;12910;57.690;11.974;2022-11-23T10:01:55;1.83;;;1.73;;
24826;SDS011;12910;57.690;11.974;2022-11-23T10:04:21;2.77;;;2.57;;
24826;SDS011;12910;57.690;11.974;2022-11-23T10:06:51;2.40;;;1.80;;
24826;SDS011;12910;57.690;11.974;2022-11-23T10:09:24;2.20;;;1.97;;
24826;SDS011;12910;57.690;11.974;2022-11-23T10:14:32;3.97;;;2.37;;
24826;SDS011;12910;57.690;11.974;2022-11-23T10:17:12;8.90;;;2.60;;
24826;SDS011;12910;57.690;11.974;2022-11-23T10:22:25;2.30;;;2.10;;
24826;SDS011;12910;57.690;11.974;2022-11-23T10:24:59;2.40;;;2.20;;
24826;SDS011;12910;57.690;11.974;2022-11-23T10:27:28;6.33;;;2.23;;
24826;SDS011;12910;57.690;11.974;2022-11-23T10:29:54;2.20;;;2.10;;
24826;SDS011;12910;57.690;11.974;2022-11-23T10:37:46;1.97;;;1.87;;
24826;SDS011;12910;57.690;11.974;2022-11-23T10:40:21;1.63;;;1.53;;
24826;SDS011;12910;57.690;11.974;2022-11-23T10:42:53;1.87;;;1.77;;
24826;SDS011;12910;57.690;11.974;2022-11-23T10:45:24;1.60;;;1.50;;
24826;SDS011;12910;57.690;11.974;2022-11-23T10:47:52;1.80;;;1.70;;
24826;SDS011;12910;57.690;11.974;2022-11-23T10:50:31;2.00;;;1.83;;
24826;SDS011;12910;57.690;11.974;2022-11-23T10:55:30;3.10;;;2.50;;
24826;SDS011;12910;57.690;11.974;2022-11-23T10:57:58;1.70;;;1.60;;
24826;SDS011;12910;57.690;11.974;2022-11-23T11:00:24;2.30;;;1.90;;
24826;SDS011;12910;57.690;11.974;2022-11-23T11:02:55;1.73;;;1.63;;
24826;SDS011;12910;57.690;11.974;2022-11-23T11:05:26;2.17;;;1.97;;
24826;SDS011;12910;57.690;11.974;2022-11-23T11:08:01;2.10;;;2.00;;
24826;SDS011;12910;57.690;11.974;2022-11-23T11:13:19;2.67;;;2.47;;
24826;SDS011;12910;57.690;11.974;2022-11-23T11:16:05;2.23;;;2.03;;
24826;SDS011;12910;57.690;11.974;2022-11-23T11:18:42;2.23;;;2.13;;
24826;SDS011;12910;57.690;11.974;2022-11-23T11:21:20;4.93;;;3.57;;
24826;SDS011;12910;57.690;11.974;2022-11-23T11:23:56;4.43;;;1.70;;
24826;SDS011;12910;57.690;11.974;2022-11-23T11:30:04;1.93;;;1.77;;
24826;SDS011;12910;57.690;11.974;2022-11-23T11:35:14;2.33;;;1.93;;
24826;SDS011;12910;57.690;11.974;2022-11-23T11:37:47;2.00;;;1.90;;
24826;SDS011;12910;57.690;11.974;2022-11-23T11:40:16;4.87;;;2.10;;
24826;SDS011;12910;57.690;11.974;2022-11-23T11:45:30;5.90;;;2.13;;
24826;SDS011;12910;57.690;11.974;2022-11-23T11:48:15;2.20;;;2.00;;
24826;SDS011;12910;57.690;11.974;2022-11-23T11:53:18;2.87;;;2.57;;
24826;SDS011;12910;57.690;11.974;2022-11-23T11:56:02;2.73;;;2.53;;
24826;SDS011;12910;57.690;11.974;2022-11-23T11:58:36;3.77;;;2.50;;
24826;SDS011;12910;57.690;11.974;2022-11-23T12:03:55;2.97;;;2.73;;
24826;SDS011;12910;57.690;11.974;2022-11-23T12:06:27;8.30;;;2.93;;
24826;SDS011;12910;57.690;11.974;2022-11-23T12:11:27;2.97;;;2.77;;
24826;SDS011;12910;57.690;11.974;2022-11-23T12:13:53;3.13;;;2.90;;
24826;SDS011;12910;57.690;11.974;2022-11-23T12:38:22;3.33;;;3.03;;
24826;SDS011;12910;57.690;11.974;2022-11-23T12:49:33;3.63;;;2.80;;
24826;SDS011;12910;57.690;11.974;2022-11-23T12:57:53;2.83;;;2.63;;
24826;SDS011;12910;57.690;11.974;2022-11-23T13:00:30;3.47;;;3.27;;
24826;SDS011;12910;57.690;11.974;2022-11-23T13:11:45;3.77;;;3.20;;
24826;SDS011;12910;57.690;11.974;2022-11-23T13:22:20;2.87;;;2.67;;
24826;SDS011;12910;57.690;11.974;2022-11-23T13:27:53;2.97;;;2.77;;
24826;SDS011;12910;57.690;11.974;2022-11-23T13:30:22;3.00;;;2.80;;
24826;SDS011;12910;57.690;11.974;2022-11-23T13:33:23;2.63;;;2.43;;
24826;SDS011;12910;57.690;11.974;2022-11-23T13:35:53;3.07;;;2.47;;
24826;SDS011;12910;57.690;11.974;2022-11-23T13:38:24;3.83;;;3.40;;
24826;SDS011;12910;57.690;11.974;2022-11-23T13:40:51;7.70;;;3.23;;
24826;SDS011;12910;57.690;11.974;2022-11-23T13:43:27;4.43;;;3.43;;
24826;SDS011;12910;57.690;11.974;2022-11-23T13:48:43;2.73;;;2.53;;
24826;SDS011;12910;57.690;11.974;2022-11-23T13:51:11;2.47;;;2.27;;
24826;SDS011;12910;57.690;11.974;2022-11-23T13:53:39;3.70;;;2.80;;
24826;SDS011;12910;57.690;11.974;2022-11-23T13:56:17;3.47;;;2.80;;
24826;SDS011;12910;57.690;11.974;2022-11-23T14:04:32;4.10;;;3.17;;
24826;SDS011;12910;57.690;11.974;2022-11-23T14:07:03;3.20;;;2.90;;
24826;SDS011;12910;57.690;11.974;2022-11-23T14:09:38;2.53;;;2.33;;
24826;SDS011;12910;57.690;11.974;2022-11-23T14:15:16;3.00;;;2.80;;
24826;SDS011;12910;57.690;11.974;2022-11-23T14:28:47;2.47;;;2.30;;
24826;SDS011;12910;57.690;11.974;2022-11-23T14:34:02;2.90;;;2.40;;
24826;SDS011;12910;57.690;11.974;2022-11-23T14:41:49;2.97;;;2.67;;
24826;SDS011;12910;57.690;11.974;2022-11-23T14:44:20;3.43;;;3.13;;
24826;SDS011;12910;57.690;11.974;2022-11-23T14:47:11;2.70;;;2.50;;
24826;SDS011;12910;57.690;11.974;2022-11-23T14:49:36;2.80;;;2.57;;
24826;SDS011;12910;57.690;11.974;2022-11-23T14:52:12;3.13;;;2.93;;
24826;SDS011;12910;57.690;11.974;2022-11-23T14:54:45;3.00;;;2.70;;
24826;SDS011;12910;57.690;11.974;2022-11-23T14:57:12;3.93;;;3.30;;
24826;SDS011;12910;57.690;11.974;2022-11-23T14:59:38;3.93;;;2.77;;
24826;SDS011;12910;57.690;11.974;2022-11-23T15:02:13;4.67;;;3.47;;
24826;SDS011;12910;57.690;11.974;2022-11-23T15:07:50;3.07;;;2.73;;
24826;SDS011;12910;57.690;11.974;2022-11-23T15:10:23;2.97;;;2.77;;
24826;SDS011;12910;57.690;11.974;2022-11-23T15:13:13;7.97;;;3.27;;
24826;SDS011;12910;57.690;11.974;2022-11-23T15:15:43;2.67;;;2.47;;
24826;SDS011;12910;57.690;11.974;2022-11-23T15:18:09;3.40;;;3.10;;
24826;SDS011;12910;57.690;11.974;2022-11-23T15:20:38;5.00;;;3.13;;
24826;SDS011;12910;57.690;11.974;2022-11-23T15:23:10;2.53;;;2.33;;
24826;SDS011;12910;57.690;11.974;2022-11-23T15:25:54;4.40;;;3.50;;
24826;SDS011;12910;57.690;11.974;2022-11-23T15:28:23;3.37;;;3.17;;
24826;SDS011;12910;57.690;11.974;2022-11-23T15:30:51;4.07;;;3.67;;
24826;SDS011;12910;57.690;11.974;2022-11-23T15:33:17;3.13;;;2.83;;
24826;SDS011;12910;57.690;11.974;2022-11-23T15:35:45;4.07;;;3.67;;
24826;SDS011;12910;57.690;11.974;2022-11-23T15:38:14;4.83;;;3.17;;
24826;SDS011;12910;57.690;11.974;2022-11-23T15:40:42;3.53;;;2.87;;
24826;SDS011;12910;57.690;11.974;2022-11-23T15:43:13;4.43;;;3.57;;
24826;SDS011;12910;57.690;11.974;2022-11-23T15:48:15;4.50;;;4.20;;
24826;SDS011;12910;57.690;11.974;2022-11-23T15:50:47;3.50;;;3.27;;
24826;SDS011;12910;57.690;11.974;2022-11-23T15:53:16;2.87;;;2.67;;
24826;SDS011;12910;57.690;11.974;2022-11-23T15:55:42;3.43;;;3.13;;
24826;SDS011;12910;57.690;11.974;2022-11-23T15:58:08;3.27;;;2.97;;
24826;SDS011;12910;57.690;11.974;2022-11-23T16:00:37;3.00;;;2.73;;
24826;SDS011;12910;57.690;11.974;2022-11-23T16:06:07;8.40;;;3.40;;
24826;SDS011;12910;57.690;11.974;2022-11-23T16:08:35;3.93;;;3.57;;
24826;SDS011;12910;57.690;11.974;2022-11-23T16:11:01;3.20;;;2.97;;
24826;SDS011;12910;57.690;11.974;2022-11-23T16:13:34;3.47;;;3.07;;
24826;SDS011;12910;57.690;11.974;2022-11-23T16:16:02;3.13;;;2.83;;
24826;SDS011;12910;57.690;11.974;2022-11-23T16:18:32;3.43;;;3.13;;
24826;SDS011;12910;57.690;11.974;2022-11-23T16:21:01;3.47;;;3.20;;
24826;SDS011;12910;57.690;11.974;2022-11-23T16:26:11;3.10;;;2.90;;
24826;SDS011;12910;57.690;11.974;2022-11-23T16:28:38;5.53;;;2.50;;
24826;SDS011;12910;57.690;11.974;2022-11-23T16:34:00;3.50;;;3.20;;
24826;SDS011;12910;57.690;11.974;2022-11-23T16:36:26;3.73;;;3.43;;
24826;SDS011;12910;57.690;11.974;2022-11-23T16:38:51;3.97;;;3.67;;
24826;SDS011;12910;57.690;11.974;2022-11-23T16:41:17;3.20;;;2.90;;
24826;SDS011;12910;57.690;11.974;2022-11-23T16:43:43;3.27;;;2.80;;
24826;SDS011;12910;57.690;11.974;2022-11-23T16:46:08;4.20;;;3.30;;
24826;SDS011;12910;57.690;11.974;2022-11-23T16:48:35;3.53;;;3.33;;
24826;SDS011;12910;57.690;11.974;2022-11-23T16:51:03;3.13;;;2.87;;
24826;SDS011;12910;57.690;11.974;2022-11-23T16:53:29;4.23;;;3.37;;
24826;SDS011;12910;57.690;11.974;2022-11-23T16:55:57;3.00;;;2.80;;
24826;SDS011;12910;57.690;11.974;2022-11-23T16:58:25;4.17;;;3.83;;